Terminal Aerodrome Forecast
Issued by NWS Memphis, TN

Home | Current Version | Previous Version | Text Only | Print | Product List | Glossary On
Versions: 1 2 3 4 5 6 7 8 9 10 11 12 13 14 15 16 17 18 19 20 21 22 23 24 25 26 27 28 29 30
245
FTUS44 KMEG 202336
TAFMEM
TAF
KMEM 202336Z 2100/2206 17013KT P6SM SCT035 BKN040 OVC080
     FM210700 19013G20KT 6SM -SHRA VCTS BKN035CB OVC070
      TEMPO 2108/2112 1SM +SHRA BR BKN008 OVC015
     FM211200 02010G15KT 3SM -RA BR OVC005
     FM211800 02012G18KT 2SM RA BR OVC003=

USA.gov is the U.S. government's official web portal to all federal, state and local government web resources and services.